Time;durP1;ratioP1;P1;durP2;ratioP2;P2;SDS_P1;SDS_P2;PMS_P1;PMS_P2;Temp;Humidity;BMP_temperature;BMP_pressure;BME280_temperature;BME280_humidity;BME280_pressure;Samples;Min_cycle;Max_cycle;Signal;HPM_P1;HPM_P2
2021/06/30 00:02:10;;;;;;;21.15;11.05;;;;;;;24.42;73.02;99653.03;5020376;28;20053;-73
2021/06/30 00:04:36;;;;;;;22.48;11.88;;;;;;;24.22;73.44;99639.25;5019798;28;20030;-73
2021/06/30 00:07:04;;;;;;;16.65;11.07;;;;;;;24.19;73.85;99641.41;5020179;28;20385;-73
2021/06/30 00:09:29;;;;;;;20.70;11.32;;;;;;;24.20;73.22;99615.16;5019652;28;20219;-73
2021/06/30 00:11:54;;;;;;;18.05;10.68;;;;;;;24.58;72.02;99638.59;5019456;28;20048;-72
2021/06/30 00:14:20;;;;;;;20.52;10.95;;;;;;;24.63;71.61;99619.69;5020180;28;20042;-73
2021/06/30 00:16:47;;;;;;;19.88;11.07;;;;;;;24.60;71.64;99632.91;5019495;28;20022;-72
2021/06/30 00:19:13;;;;;;;19.98;10.75;;;;;;;24.69;71.21;99636.78;5018234;28;20439;-73
2021/06/30 00:21:39;;;;;;;23.13;11.13;;;;;;;24.88;70.93;99643.47;5020107;28;20029;-73
2021/06/30 00:24:06;;;;;;;20.02;11.32;;;;;;;25.02;70.17;99649.31;5010190;28;20097;-72
2021/06/30 00:26:32;;;;;;;16.90;10.73;;;;;;;25.06;69.57;99642.31;5002498;28;20026;-73
2021/06/30 00:28:57;;;;;;;17.65;10.68;;;;;;;25.12;69.02;99643.97;5001885;28;20041;-73
2021/06/30 00:31:22;;;;;;;19.08;10.57;;;;;;;25.20;68.71;99651.63;5020066;28;20038;-72
2021/06/30 00:33:49;;;;;;;18.77;10.07;;;;;;;25.08;67.97;99624.72;5019421;28;20087;-73
2021/06/30 00:36:14;;;;;;;19.30;9.98;;;;;;;25.17;68.60;99652.16;5020118;28;20030;-72
2021/06/30 00:38:39;;;;;;;15.88;9.93;;;;;;;25.12;68.43;99649.41;5019425;28;20056;-72
2021/06/30 00:41:05;;;;;;;16.10;10.20;;;;;;;25.13;68.53;99661.88;5019645;28;20042;-73
2021/06/30 00:43:30;;;;;;;21.58;11.02;;;;;;;25.01;68.99;99651.22;4994434;28;20218;-72
2021/06/30 00:45:56;;;;;;;19.17;11.18;;;;;;;25.01;69.45;99653.09;5019112;28;20105;-72
2021/06/30 00:48:21;;;;;;;18.17;10.85;;;;;;;25.10;68.77;99657.78;5020323;28;20034;-72
2021/06/30 00:50:47;;;;;;;15.55;9.88;;;;;;;25.22;68.60;99663.03;5018999;28;20334;-73
2021/06/30 00:53:12;;;;;;;21.00;10.35;;;;;;;25.38;67.93;99663.94;5001125;28;20088;-72
2021/06/30 00:55:38;;;;;;;15.80;10.52;;;;;;;25.55;66.85;99674.63;5019569;28;20028;-73
2021/06/30 00:58:05;;;;;;;24.30;10.40;;;;;;;25.50;66.59;99666.47;5019713;28;20053;-73
2021/06/30 01:00:31;;;;;;;15.15;9.18;;;;;;;25.63;65.62;99677.66;5019690;28;20037;-72
2021/06/30 01:02:56;;;;;;;17.02;10.75;;;;;;;25.46;65.98;99677.81;5019225;28;20038;-73
2021/06/30 01:05:22;;;;;;;14.10;9.98;;;;;;;25.16;66.70;99669.47;5018846;28;20042;-73
2021/06/30 01:07:48;;;;;;;14.90;10.02;;;;;;;25.02;67.29;99665.56;5018743;28;20032;-73
2021/06/30 01:10:13;;;;;;;19.38;11.35;;;;;;;24.85;68.39;99673.75;5000963;28;20022;-73
2021/06/30 01:12:39;;;;;;;18.23;11.02;;;;;;;24.49;69.74;99673.41;5019570;28;20034;-72
2021/06/30 01:15:07;;;;;;;24.58;11.52;;;;;;;24.24;70.86;99677.69;5020167;28;20041;-72
2021/06/30 01:17:32;;;;;;;19.70;11.25;;;;;;;24.12;71.40;99677.84;5000822;28;20304;-72
2021/06/30 01:19:58;;;;;;;21.05;11.57;;;;;;;23.99;71.74;99689.03;5019320;28;20091;-73
2021/06/30 01:22:24;;;;;;;16.08;10.95;;;;;;;23.82;72.53;99689.88;5018795;28;20045;-72
2021/06/30 01:24:52;;;;;;;17.90;11.23;;;;;;;23.79;72.13;99659.81;5018311;28;20091;-72
2021/06/30 01:27:20;;;;;;;20.50;11.77;;;;;;;23.84;72.47;99687.72;5017947;28;20041;-72
2021/06/30 01:29:46;;;;;;;16.63;11.32;;;;;;;23.87;72.31;99689.13;5018463;28;20191;-73
2021/06/30 01:32:12;;;;;;;14.40;11.07;;;;;;;23.81;72.42;99698.22;5020479;28;20022;-73
2021/06/30 01:34:38;;;;;;;15.23;11.13;;;;;;;23.88;72.13;99704.28;5018002;28;20235;-73
2021/06/30 01:37:03;;;;;;;15.82;10.38;;;;;;;23.91;71.00;99674.03;5000867;28;20034;-72
2021/06/30 01:39:29;;;;;;;14.07;10.90;;;;;;;24.10;70.73;99694.31;5000823;28;20029;-72
2021/06/30 01:41:54;;;;;;;16.05;11.48;;;;;;;24.07;70.62;99692.13;5018340;28;20038;-73
2021/06/30 01:44:20;;;;;;;13.07;10.82;;;;;;;24.13;70.70;99701.94;5019111;28;20036;-72
2021/06/30 01:46:46;;;;;;;14.85;10.88;;;;;;;24.12;70.85;99694.88;4998907;28;20052;-72
2021/06/30 01:49:12;;;;;;;18.60;10.13;;;;;;;24.06;70.71;99701.28;5018024;28;20052;-72
2021/06/30 01:51:38;;;;;;;16.50;9.85;;;;;;;23.96;70.40;99692.22;5019094;28;20089;-72
2021/06/30 01:54:06;;;;;;;16.38;10.75;;;;;;;23.87;71.11;99700.75;5017864;28;20045;-73
2021/06/30 01:56:33;;;;;;;14.07;9.48;;;;;;;23.95;70.35;99704.94;5018115;28;20215;-73
2021/06/30 01:59:01;;;;;;;13.02;9.30;;;;;;;24.05;69.63;99709.66;5018312;28;20256;-73
2021/06/30 02:01:28;;;;;;;14.35;9.43;;;;;;;24.12;69.21;99715.72;4989955;28;20196;-72
2021/06/30 02:03:57;;;;;;;11.57;9.63;;;;;;;24.00;69.02;99712.31;5018388;28;20037;-72
2021/06/30 02:06:27;;;;;;;13.40;9.88;;;;;;;23.79;69.92;99719.28;5019069;28;20022;-73
2021/06/30 02:08:56;;;;;;;10.45;9.13;;;;;;;23.90;69.64;99718.38;5011667;28;20034;-72
2021/06/30 02:11:23;;;;;;;14.73;8.88;;;;;;;24.07;68.77;99716.47;5000471;28;20030;-73
2021/06/30 02:13:49;;;;;;;13.57;9.48;;;;;;;24.24;67.73;99719.09;5018290;28;20030;-73
2021/06/30 02:16:14;;;;;;;12.40;8.80;;;;;;;24.23;67.43;99720.16;5019218;28;20377;-73
2021/06/30 02:18:40;;;;;;;10.32;8.68;;;;;;;24.24;67.66;99727.22;5017991;28;20053;-72
2021/06/30 02:21:07;;;;;;;14.65;9.02;;;;;;;24.23;67.63;99722.88;5017941;28;20045;-72
2021/06/30 02:23:32;;;;;;;12.40;8.88;;;;;;;24.30;67.03;99728.94;5018680;28;20073;-72
2021/06/30 02:25:58;;;;;;;14.98;9.30;;;;;;;24.22;67.23;99726.66;5017545;28;20037;-72
2021/06/30 02:28:24;;;;;;;14.82;9.43;;;;;;;23.82;67.90;99689.88;5015614;28;20085;-73
2021/06/30 02:30:50;;;;;;;15.77;8.40;;;;;;;23.95;68.14;99734.69;5018785;28;20038;-72
2021/06/30 02:33:16;;;;;;;13.50;9.55;;;;;;;23.94;67.98;99738.47;5018337;28;20061;-73
2021/06/30 02:35:41;;;;;;;11.35;8.50;;;;;;;24.03;67.78;99747.78;5002595;28;20022;-73
2021/06/30 02:38:08;;;;;;;14.27;8.93;;;;;;;23.91;68.04;99741.63;5003779;28;20061;-73
2021/06/30 02:40:34;;;;;;;12.65;8.55;;;;;;;23.76;68.77;99744.13;5021520;28;20342;-72
2021/06/30 02:43:00;;;;;;;19.85;9.13;;;;;;;23.78;68.80;99753.63;5000248;28;20029;-72
2021/06/30 02:45:27;;;;;;;14.07;8.80;;;;;;;23.86;68.42;99755.09;5020317;28;20083;-73
2021/06/30 02:47:52;;;;;;;13.25;8.60;;;;;;;23.91;67.83;99751.63;5021153;28;20037;-73
2021/06/30 02:50:19;;;;;;;9.68;7.70;;;;;;;23.94;67.95;99760.09;5022015;28;20341;-73
2021/06/30 02:52:45;;;;;;;19.27;8.60;;;;;;;24.07;67.46;99758.91;5021167;28;20034;-73
2021/06/30 02:55:13;;;;;;;14.02;8.60;;;;;;;24.11;67.02;99760.06;5020790;28;20033;-72
2021/06/30 02:57:39;;;;;;;14.73;8.50;;;;;;;24.28;66.14;99755.44;5021600;28;20040;-73
2021/06/30 03:00:14;;;;;;;19.55;8.48;;;;;;;24.29;65.87;99759.78;5021467;28;20034;-72
2021/06/30 03:02:40;;;;;;;12.88;8.48;;;;;;;24.00;66.42;99718.53;5003739;28;20323;-72
2021/06/30 03:05:07;;;;;;;18.17;8.52;;;;;;;24.13;66.12;99749.81;5019496;28;20110;-72
2021/06/30 03:07:32;;;;;;;12.30;8.07;;;;;;;23.96;66.27;99746.31;5021955;28;20036;-73
2021/06/30 03:09:58;;;;;;;14.73;7.90;;;;;;;23.82;67.01;99753.94;5020775;28;20037;-73
2021/06/30 03:12:24;;;;;;;13.40;7.82;;;;;;;23.65;67.98;99751.25;5022126;28;20046;-73
2021/06/30 03:14:49;;;;;;;19.60;7.80;;;;;;;23.42;69.02;99754.94;5021600;28;20105;-72
2021/06/30 03:17:15;;;;;;;19.15;8.20;;;;;;;23.33;69.23;99751.00;5020494;28;20259;-73
2021/06/30 03:19:41;;;;;;;19.85;8.50;;;;;;;23.35;69.31;99748.88;5003027;28;20021;-72
2021/06/30 03:22:07;;;;;;;16.73;9.52;;;;;;;23.53;68.61;99764.00;5003661;28;20045;-72
2021/06/30 03:24:32;;;;;;;14.18;7.50;;;;;;;23.48;68.68;99758.53;5020237;28;20026;-73
2021/06/30 03:26:58;;;;;;;15.02;8.52;;;;;;;23.53;68.33;99758.59;5021324;28;20322;-72
2021/06/30 03:29:24;;;;;;;11.15;8.07;;;;;;;23.57;68.39;99759.78;5021869;28;20343;-72
2021/06/30 03:31:49;;;;;;;11.48;8.00;;;;;;;23.73;67.90;99767.06;5021990;28;20060;-73
2021/06/30 03:34:15;;;;;;;15.68;8.52;;;;;;;23.68;68.36;99772.38;5020492;28;20113;-73
2021/06/30 03:36:40;;;;;;;18.15;9.50;;;;;;;23.65;68.68;99772.06;5020549;28;20093;-72
2021/06/30 03:39:06;;;;;;;17.90;8.07;;;;;;;23.55;69.18;99770.03;5021232;28;20034;-73
2021/06/30 03:41:31;;;;;;;20.98;8.98;;;;;;;23.72;68.09;99764.59;5020002;28;20067;-73
2021/06/30 03:43:57;;;;;;;18.83;8.38;;;;;;;23.80;68.26;99775.81;5017506;28;20025;-73
2021/06/30 03:46:22;;;;;;;14.20;8.05;;;;;;;23.76;68.00;99771.97;5019855;28;20268;-72
2021/06/30 03:48:48;;;;;;;16.27;8.07;;;;;;;23.75;67.77;99774.94;5021135;28;20343;-72
2021/06/30 03:51:13;;;;;;;17.55;8.57;;;;;;;23.98;67.81;99777.47;5017159;28;20113;-73
2021/06/30 03:53:39;;;;;;;18.00;8.18;;;;;;;23.78;67.57;99782.53;5020216;28;20034;-72
2021/06/30 03:56:04;;;;;;;16.17;7.95;;;;;;;23.71;68.85;99782.72;5021220;28;20029;-73
2021/06/30 03:58:30;;;;;;;18.10;8.95;;;;;;;23.78;68.52;99782.53;5019864;28;20263;-72
2021/06/30 04:00:57;;;;;;;15.23;8.90;;;;;;;24.05;67.72;99778.09;5021164;28;20056;-73
2021/06/30 04:03:22;;;;;;;14.20;8.45;;;;;;;23.97;67.66;99775.81;5017940;28;20041;-73
2021/06/30 04:05:48;;;;;;;16.92;8.70;;;;;;;24.37;66.79;99777.47;5001906;28;20099;-73
2021/06/30 04:08:13;;;;;;;20.30;8.85;;;;;;;24.31;66.57;99768.47;5010267;28;20042;-73
2021/06/30 04:10:40;;;;;;;13.45;9.32;;;;;;;24.41;66.60;99768.59;5020390;28;20040;-73
2021/06/30 04:13:08;;;;;;;12.02;8.70;;;;;;;23.87;68.06;99767.53;5020037;28;20058;-73
2021/06/30 04:15:33;;;;;;;14.13;9.52;;;;;;;23.80;68.08;99770.41;5019701;28;20355;-72
2021/06/30 04:18:03;;;;;;;30.85;10.30;;;;;;;24.05;66.64;99769.16;5020351;28;20042;-73
2021/06/30 04:20:28;;;;;;;15.30;9.18;;;;;;;24.30;66.37;99771.44;5019162;28;20033;-73
2021/06/30 04:22:54;;;;;;;15.18;8.95;;;;;;;24.53;64.62;99765.75;5019725;28;20030;-73
2021/06/30 04:25:19;;;;;;;17.83;8.23;;;;;;;24.44;64.37;99751.84;5019836;28;20030;-73
2021/06/30 04:27:44;;;;;;;20.75;7.90;;;;;;;24.69;64.07;99758.63;5019722;28;20040;-72
2021/06/30 04:30:11;;;;;;;22.63;8.88;;;;;;;24.59;64.07;99758.50;5002495;28;20335;-72
2021/06/30 04:32:37;;;;;;;14.60;8.10;;;;;;;24.37;64.77;99770.16;5019082;28;20060;-73
2021/06/30 04:35:05;;;;;;;12.25;9.00;;;;;;;24.61;64.64;99772.63;5019409;28;20053;-73
2021/06/30 04:37:30;;;;;;;18.92;8.43;;;;;;;24.53;65.03;99776.59;5020344;28;20093;-73
2021/06/30 04:39:56;;;;;;;15.63;9.00;;;;;;;24.92;64.34;99771.88;5020226;28;20038;-73
2021/06/30 04:42:21;;;;;;;15.98;8.90;;;;;;;25.12;62.62;99776.75;5019289;28;20038;-73
2021/06/30 04:44:47;;;;;;;12.63;8.05;;;;;;;25.32;62.94;99774.22;5019763;28;20033;-73
2021/06/30 04:47:12;;;;;;;21.20;8.35;;;;;;;25.35;61.88;99770.16;5020149;28;20088;-72
2021/06/30 04:49:38;;;;;;;14.07;8.25;;;;;;;25.34;60.53;99776.66;5018615;28;20246;-73
2021/06/30 04:52:03;;;;;;;19.90;8.73;;;;;;;25.29;60.76;99777.44;5001083;28;20215;-73
2021/06/30 04:54:29;;;;;;;14.85;8.93;;;;;;;25.21;61.41;99774.38;5019751;28;20217;-72
2021/06/30 04:56:54;;;;;;;16.88;8.95;;;;;;;25.63;61.14;99779.88;5018886;28;20045;-72
2021/06/30 04:59:21;;;;;;;15.73;9.85;;;;;;;25.82;59.79;99777.59;5000855;28;20095;-73
2021/06/30 05:01:47;;;;;;;11.65;9.38;;;;;;;26.01;58.44;99759.84;5019872;28;20104;-73
2021/06/30 05:04:13;;;;;;;16.77;10.13;;;;;;;26.19;57.51;99780.31;5018439;28;20077;-72
2021/06/30 05:06:38;;;;;;;12.55;9.27;;;;;;;26.24;58.28;99786.56;5019617;28;20032;-73
2021/06/30 05:09:04;;;;;;;17.23;10.27;;;;;;;26.45;57.42;99783.97;5000398;28;20262;-72
2021/06/30 05:11:31;;;;;;;24.05;10.05;;;;;;;26.50;56.49;99779.38;5018618;28;20033;-73
2021/06/30 05:13:56;;;;;;;15.48;10.23;;;;;;;26.52;56.71;99789.97;5018864;28;20042;-72
2021/06/30 05:16:24;;;;;;;23.65;10.80;;;;;;;26.90;56.09;99786.03;5018570;28;20342;-73
2021/06/30 05:18:49;;;;;;;18.23;9.27;;;;;;;26.80;56.58;99792.25;5018900;28;20330;-73
2021/06/30 05:21:15;;;;;;;16.30;10.20;;;;;;;27.12;54.61;99780.44;5018827;28;20014;-72
2021/06/30 05:23:40;;;;;;;17.88;10.63;;;;;;;27.30;54.21;99788.06;5017067;28;20165;-72
2021/06/30 05:26:06;;;;;;;16.88;10.10;;;;;;;27.52;54.13;99775.00;5018873;28;20362;-72
2021/06/30 05:28:31;;;;;;;15.63;9.82;;;;;;;27.56;53.14;99783.44;5001125;28;20065;-73
2021/06/30 05:31:00;;;;;;;14.23;9.57;;;;;;;27.79;53.33;99782.91;5018142;28;20030;-72
2021/06/30 05:33:25;;;;;;;16.67;9.88;;;;;;;27.79;53.93;99777.47;5021729;28;20324;-73
2021/06/30 05:35:51;;;;;;;14.50;9.77;;;;;;;27.85;52.29;99776.34;5022402;28;20053;-73
2021/06/30 05:38:16;;;;;;;13.75;9.57;;;;;;;28.05;51.07;99777.41;5004447;28;20088;-73
2021/06/30 05:40:42;;;;;;;15.80;9.57;;;;;;;27.95;52.59;99772.81;5021852;28;20037;-72
2021/06/30 05:43:07;;;;;;;15.50;9.48;;;;;;;28.19;51.41;99776.59;5022291;28;20042;-73
2021/06/30 05:45:33;;;;;;;14.48;9.43;;;;;;;28.37;50.84;99771.66;5004623;28;20061;-72
2021/06/30 05:47:58;;;;;;;19.13;10.18;;;;;;;28.20;51.16;99780.13;5021265;28;20327;-74
2021/06/30 05:50:24;;;;;;;16.95;9.30;;;;;;;28.16;51.69;99777.13;5002622;28;20022;-72
2021/06/30 05:52:49;;;;;;;25.70;9.73;;;;;;;28.66;51.31;99769.88;5020444;28;20045;-72
2021/06/30 05:55:15;;;;;;;21.55;10.23;;;;;;;29.15;50.29;99764.44;5020126;28;20089;-73
2021/06/30 05:57:40;;;;;;;13.50;9.43;;;;;;;29.73;49.27;99766.44;5020750;28;20346;-72
2021/06/30 06:00:11;;;;;;;14.48;8.63;;;;;;;29.87;46.80;99768.22;5020246;28;20041;-72
2021/06/30 06:02:37;;;;;;;45.97;10.15;;;;;;;29.70;48.10;99769.75;5002559;28;20097;-73
2021/06/30 06:05:03;;;;;;;17.25;9.63;;;;;;;29.87;47.03;99762.75;5020202;28;20050;-72
2021/06/30 06:07:28;;;;;;;15.73;9.63;;;;;;;29.83;47.12;99761.69;5020601;28;20064;-73
2021/06/30 06:09:54;;;;;;;17.88;9.93;;;;;;;30.29;46.12;99765.91;5020666;28;20038;-73
2021/06/30 06:12:19;;;;;;;14.60;9.25;;;;;;;30.51;46.49;99768.91;5024440;28;20033;-73
2021/06/30 06:14:45;;;;;;;51.92;10.15;;;;;;;31.28;43.67;99755.84;5024133;28;20038;-73
2021/06/30 06:17:10;;;;;;;14.93;9.00;;;;;;;31.36;43.90;99757.06;5024547;28;20315;-73
2021/06/30 06:19:36;;;;;;;21.92;10.38;;;;;;;31.40;43.01;99766.31;5024110;28;20049;-73
2021/06/30 06:22:04;;;;;;;15.27;9.27;;;;;;;32.04;41.32;99746.28;5006249;28;20037;-72
2021/06/30 06:24:30;;;;;;;15.20;9.52;;;;;;;32.87;39.91;99757.22;5023933;28;20026;-73
2021/06/30 06:26:55;;;;;;;16.45;9.82;;;;;;;33.50;38.01;99748.06;5019204;28;20377;-73
2021/06/30 06:29:22;;;;;;;12.77;10.18;;;;;;;33.84;37.29;99752.94;5022325;28;20049;-73
2021/06/30 06:31:49;;;;;;;18.45;9.48;;;;;;;33.77;38.05;99736.88;5023193;28;20319;-73
2021/06/30 06:34:19;;;;;;;15.02;10.73;;;;;;;34.12;36.63;99750.78;5004292;28;20033;-73
2021/06/30 06:36:49;;;;;;;19.25;10.48;;;;;;;34.11;36.91;99747.25;5024595;28;20034;-73
2021/06/30 06:39:16;;;;;;;13.63;9.82;;;;;;;34.45;36.38;99740.28;5005314;28;20231;-73
2021/06/30 06:41:42;;;;;;;16.67;10.40;;;;;;;34.47;35.66;99741.56;5023867;28;20057;-73
2021/06/30 06:44:08;;;;;;;17.88;10.85;;;;;;;34.03;36.54;99748.03;5023943;28;20334;-73
2021/06/30 06:46:33;;;;;;;16.27;10.27;;;;;;;34.41;36.80;99748.34;5006928;28;20333;-73
2021/06/30 06:48:59;;;;;;;13.70;10.27;;;;;;;34.54;36.40;99722.66;5006455;28;20040;-73
2021/06/30 06:51:25;;;;;;;20.17;10.48;;;;;;;35.18;34.65;99742.13;5006634;28;20021;-73
2021/06/30 06:53:51;;;;;;;16.05;10.43;;;;;;;35.47;34.09;99737.91;5024440;28;20096;-73
2021/06/30 06:56:19;;;;;;;13.75;10.35;;;;;;;35.80;33.67;99722.44;5023865;28;20096;-73
2021/06/30 06:58:45;;;;;;;15.75;9.48;;;;;;;35.99;33.77;99724.78;5023813;28;20300;-73
2021/06/30 07:01:11;;;;;;;21.27;10.68;;;;;;;36.08;33.50;99722.78;5023737;28;20046;-74
2021/06/30 07:03:36;;;;;;;17.30;11.75;;;;;;;35.92;32.91;99719.00;5034653;28;20038;-74
2021/06/30 07:06:02;;;;;;;16.88;10.05;;;;;;;35.86;33.74;99722.25;5023563;28;20029;-73
2021/06/30 07:08:27;;;;;;;17.33;10.80;;;;;;;36.25;33.17;99707.31;5024117;28;20339;-73
2021/06/30 07:10:53;;;;;;;12.45;9.30;;;;;;;36.64;32.74;99715.19;5023824;28;20227;-74
2021/06/30 07:13:19;;;;;;;16.23;10.10;;;;;;;35.79;34.05;99715.28;5023680;28;20143;-74
2021/06/30 07:15:44;;;;;;;18.00;9.48;;;;;;;34.95;35.71;99713.16;5023815;28;20025;-73
2021/06/30 07:18:17;;;;;;;15.23;10.20;;;;;;;34.72;36.11;99712.47;5023751;28;20034;-72
2021/06/30 07:20:43;;;;;;;15.82;10.18;;;;;;;34.53;36.79;99707.28;5023449;28;20053;-73
2021/06/30 07:23:10;;;;;;;13.75;9.93;;;;;;;34.61;36.16;99704.88;5004249;28;20053;-73
2021/06/30 07:25:36;;;;;;;15.15;10.63;;;;;;;35.03;35.50;99703.28;5023425;28;20100;-73
2021/06/30 07:28:02;;;;;;;15.70;11.00;;;;;;;34.95;36.36;99707.66;5005693;28;20068;-72
2021/06/30 07:30:28;;;;;;;15.93;10.48;;;;;;;34.13;37.60;99701.03;5005897;28;20049;-73
2021/06/30 07:32:53;;;;;;;13.55;11.23;;;;;;;33.67;38.67;99709.72;5023580;28;20042;-73
2021/06/30 07:35:19;;;;;;;20.30;12.90;;;;;;;32.97;39.56;99686.47;5022948;28;20033;-74
2021/06/30 07:37:44;;;;;;;18.55;11.00;;;;;;;34.30;38.13;99715.94;5023682;28;20061;-73
2021/06/30 07:40:11;;;;;;;20.40;12.30;;;;;;;35.09;35.73;99710.22;5023010;28;20038;-74
2021/06/30 07:42:37;;;;;;;14.80;11.43;;;;;;;35.19;35.73;99710.69;5005464;28;20920;-73
2021/06/30 07:45:04;;;;;;;14.90;11.75;;;;;;;35.98;33.98;99703.88;5023138;28;20319;-73
2021/06/30 07:47:30;;;;;;;16.13;10.65;;;;;;;36.74;32.91;99708.47;5022858;28;20046;-73
2021/06/30 07:49:55;;;;;;;15.95;10.65;;;;;;;37.13;32.35;99707.16;5022803;28;20038;-74
2021/06/30 07:52:21;;;;;;;21.35;11.25;;;;;;;37.01;32.87;99702.41;5023085;28;20029;-73
2021/06/30 07:54:47;;;;;;;16.77;11.13;;;;;;;36.93;32.30;99700.53;5022670;28;20038;-73
2021/06/30 07:57:12;;;;;;;15.98;11.20;;;;;;;36.82;32.89;99695.78;5022754;28;20037;-72
2021/06/30 07:59:37;;;;;;;17.00;12.10;;;;;;;35.90;34.73;99687.38;5022782;28;20105;-73
2021/06/30 08:02:03;;;;;;;20.10;11.65;;;;;;;36.48;34.21;99689.34;5022925;28;20037;-73
2021/06/30 08:04:29;;;;;;;17.23;11.75;;;;;;;36.95;33.68;99698.25;5022294;28;20034;-72
2021/06/30 08:06:54;;;;;;;18.05;13.23;;;;;;;36.13;33.94;99689.53;5023025;28;20046;-72
2021/06/30 08:09:20;;;;;;;14.27;11.75;;;;;;;35.93;34.53;99692.25;5022383;28;20049;-73
2021/06/30 08:11:45;;;;;;;15.68;12.45;;;;;;;36.00;34.82;99692.53;5022713;28;20034;-73
2021/06/30 08:14:11;;;;;;;21.80;12.93;;;;;;;35.82;35.83;99686.28;5022571;28;20068;-73
2021/06/30 08:16:37;;;;;;;16.42;12.82;;;;;;;36.10;34.72;99687.44;5022570;28;20030;-73
2021/06/30 08:19:02;;;;;;;22.80;13.45;;;;;;;36.29;33.68;99680.72;5022553;28;20071;-73
2021/06/30 08:21:28;;;;;;;23.35;12.70;;;;;;;36.47;33.86;99671.19;5022251;28;20042;-73
2021/06/30 08:23:53;;;;;;;21.70;12.48;;;;;;;36.78;33.02;99675.53;5022674;28;20729;-73
2021/06/30 08:26:19;;;;;;;21.25;14.23;;;;;;;36.35;34.42;99671.09;5022232;28;20053;-72
2021/06/30 08:28:46;;;;;;;19.05;11.77;;;;;;;36.62;33.13;99656.00;5022005;28;20042;-73
2021/06/30 08:31:11;;;;;;;17.10;12.52;;;;;;;36.99;32.50;99662.50;5022233;28;20338;-74
2021/06/30 08:33:37;;;;;;;17.73;13.13;;;;;;;37.47;32.32;99661.06;5003713;28;20029;-73
2021/06/30 08:36:04;;;;;;;21.15;12.80;;;;;;;37.25;33.18;99657.53;5022066;28;20026;-73
2021/06/30 08:38:29;;;;;;;21.73;13.00;;;;;;;36.34;34.08;99652.94;5022441;28;20314;-72
2021/06/30 08:40:56;;;;;;;20.15;14.02;;;;;;;35.50;36.84;99649.13;5003682;28;20021;-72
2021/06/30 08:43:22;;;;;;;17.17;12.60;;;;;;;35.92;36.22;99652.03;5022196;28;20048;-73
2021/06/30 08:45:48;;;;;;;19.23;14.15;;;;;;;36.29;34.37;99650.38;5022359;28;20821;-74
2021/06/30 08:48:15;;;;;;;24.77;10.95;;;;;;;35.70;34.55;99645.66;5022131;28;20041;-73
2021/06/30 08:50:42;;;;;;;14.98;11.55;;;;;;;36.33;33.91;99654.09;5004139;28;20026;-73
2021/06/30 08:53:12;;;;;;;13.75;11.32;;;;;;;37.00;32.82;99636.50;5003682;28;20034;-73
2021/06/30 08:55:38;;;;;;;14.80;10.98;;;;;;;36.88;33.36;99650.25;5021563;28;20335;-74
2021/06/30 08:58:04;;;;;;;26.75;11.93;;;;;;;35.57;36.10;99654.94;5021881;28;20041;-73
2021/06/30 09:00:31;;;;;;;17.88;10.60;;;;;;;36.28;34.28;99645.97;5021865;28;20267;-73
2021/06/30 09:02:58;;;;;;;16.10;10.18;;;;;;;36.86;33.46;99638.75;5021857;28;20262;-73
2021/06/30 09:05:37;;;;;;;17.45;10.23;;;;;;;36.11;34.81;99633.13;5021570;28;20057;-73
2021/06/30 09:08:02;;;;;;;14.10;9.73;;;;;;;36.47;34.60;99627.06;5021659;28;20250;-73
2021/06/30 09:10:35;;;;;;;15.40;9.68;;;;;;;35.86;36.93;99639.59;5021574;28;20037;-73
2021/06/30 09:13:03;;;;;;;13.18;10.25;;;;;;;35.17;35.48;99633.16;5003174;28;20058;-72
2021/06/30 09:15:31;;;;;;;15.38;9.82;;;;;;;35.46;35.86;99635.22;5021659;28;20088;-73
2021/06/30 09:18:18;;;;;;;13.93;9.95;;;;;;;36.25;33.66;99630.09;5021516;28;20037;-73
2021/06/30 09:20:46;;;;;;;10.43;9.10;;;;;;;36.07;33.82;99621.97;5021371;28;20365;-73
2021/06/30 09:23:11;;;;;;;11.23;9.43;;;;;;;36.53;34.07;99631.25;5021599;28;20033;-73
2021/06/30 09:25:42;;;;;;;15.13;9.45;;;;;;;36.40;33.72;99616.56;5021080;28;20022;-73
2021/06/30 09:28:21;;;;;;;12.57;9.45;;;;;;;36.56;33.78;99619.53;5021426;28;20342;-73
2021/06/30 09:31:05;;;;;;;12.52;9.35;;;;;;;35.19;36.30;99581.34;5002806;28;20081;-73
2021/06/30 09:34:04;;;;;;;14.85;9.75;;;;;;;35.71;34.71;99607.91;5020536;28;20034;-73
2021/06/30 09:37:05;;;;;;;13.70;9.52;;;;;;;36.32;34.68;99592.63;4981444;28;20041;-73
2021/06/30 09:39:36;;;;;;;17.10;9.63;;;;;;;36.37;35.06;99599.88;5020598;28;20350;-73
2021/06/30 09:42:11;;;;;;;13.77;10.48;;;;;;;36.30;35.56;99597.66;5021290;28;20038;-72
2021/06/30 09:44:38;;;;;;;16.65;9.60;;;;;;;35.04;37.53;99586.56;5020687;28;20304;-73
2021/06/30 09:47:05;;;;;;;12.73;9.50;;;;;;;34.46;38.42;99583.25;5021248;28;20037;-73
2021/06/30 09:49:32;;;;;;;11.52;10.05;;;;;;;34.48;39.25;99589.22;5020845;28;20327;-73
2021/06/30 09:52:08;;;;;;;18.33;10.40;;;;;;;34.39;40.26;99580.19;5021257;28;20148;-73
2021/06/30 09:54:35;;;;;;;13.90;10.50;;;;;;;34.12;38.54;99581.25;5002260;28;20037;-73
2021/06/30 09:57:10;;;;;;;13.52;9.98;;;;;;;34.20;38.02;99572.19;5003505;28;20319;-73
2021/06/30 09:59:38;;;;;;;18.55;10.90;;;;;;;34.08;41.04;99576.72;5019545;28;20072;-73
2021/06/30 10:02:18;;;;;;;19.45;10.38;;;;;;;33.69;42.24;99567.41;5003601;28;20030;-73
2021/06/30 10:04:47;;;;;;;14.68;11.25;;;;;;;33.74;40.21;99570.00;5020679;28;20038;-73
2021/06/30 10:07:15;;;;;;;13.43;10.25;;;;;;;33.60;41.64;99556.41;5021084;28;20037;-73
2021/06/30 10:10:04;;;;;;;13.68;11.35;;;;;;;33.36;41.90;99558.75;5020954;28;20041;-73
2021/06/30 10:12:31;;;;;;;12.50;11.15;;;;;;;33.46;43.97;99561.22;5018362;28;20050;-72
2021/06/30 10:14:58;;;;;;;13.35;11.00;;;;;;;33.09;41.67;99546.00;5016668;28;20056;-73
2021/06/30 10:17:25;;;;;;;16.95;10.23;;;;;;;33.07;40.43;99552.94;5018036;28;20098;-73
2021/06/30 10:19:52;;;;;;;12.93;10.70;;;;;;;33.16;43.48;99556.53;5017099;28;20319;-73
2021/06/30 10:22:18;;;;;;;16.08;11.50;;;;;;;33.30;43.08;99552.59;5017610;28;20037;-72
2021/06/30 10:24:44;;;;;;;14.85;10.95;;;;;;;33.18;41.55;99551.53;5016882;28;20296;-72
2021/06/30 10:27:13;;;;;;;14.02;10.77;;;;;;;33.34;41.70;99552.78;5017460;28;20093;-73
2021/06/30 10:29:42;;;;;;;17.73;10.45;;;;;;;33.22;42.15;99541.53;4999686;28;20080;-73
2021/06/30 10:32:13;;;;;;;13.20;10.45;;;;;;;33.07;40.95;99534.53;5017255;28;20030;-73
2021/06/30 10:35:06;;;;;;;15.05;10.20;;;;;;;33.35;41.62;99532.44;5016763;28;20030;-73
2021/06/30 10:37:35;;;;;;;17.08;10.52;;;;;;;33.48;41.87;99547.19;5010332;28;20068;-73
2021/06/30 10:40:10;;;;;;;17.33;10.65;;;;;;;32.78;40.60;99537.78;4999881;28;20117;-73
2021/06/30 10:42:41;;;;;;;15.52;10.05;;;;;;;32.92;40.35;99540.44;5017753;28;20053;-73
2021/06/30 10:45:13;;;;;;;11.27;9.63;;;;;;;32.89;40.71;99536.38;4996503;28;20033;-73
2021/06/30 10:47:49;;;;;;;13.85;9.73;;;;;;;33.23;40.26;99519.28;5016907;28;20034;-73
2021/06/30 10:50:18;;;;;;;13.70;10.35;;;;;;;33.51;40.36;99535.56;5014881;28;20026;-73
2021/06/30 10:52:48;;;;;;;15.00;10.18;;;;;;;33.05;39.93;99531.28;5017786;28;20030;-73
2021/06/30 10:55:36;;;;;;;13.50;10.90;;;;;;;33.19;41.52;99536.69;5016384;28;20106;-73
2021/06/30 10:58:10;;;;;;;15.82;11.23;;;;;;;33.35;42.02;99529.69;5023125;28;20041;-72
2021/06/30 11:00:41;;;;;;;14.27;11.23;;;;;;;33.26;40.33;99526.06;5024275;28;20259;-73
2021/06/30 11:03:32;;;;;;;17.70;10.77;;;;;;;33.27;40.21;99520.25;5024095;28;20060;-73
2021/06/30 11:06:09;;;;;;;13.77;11.40;;;;;;;33.22;40.97;99520.41;5024060;28;20033;-73
2021/06/30 11:08:51;;;;;;;13.98;11.40;;;;;;;33.02;42.23;99512.72;5024258;28;20045;-73
2021/06/30 11:11:37;;;;;;;15.88;11.65;;;;;;;33.16;42.91;99509.88;5023271;28;20042;-73
2021/06/30 11:14:06;;;;;;;15.43;11.70;;;;;;;33.31;43.95;99509.50;5023310;28;20368;-73
2021/06/30 11:16:45;;;;;;;15.77;11.05;;;;;;;33.46;41.64;99502.75;5023158;28;20030;-73
2021/06/30 11:19:19;;;;;;;12.68;11.02;;;;;;;33.69;41.33;99484.22;5023210;28;20052;-73
2021/06/30 11:21:53;;;;;;;16.27;10.82;;;;;;;33.47;41.51;99490.66;5023648;28;20209;-73
2021/06/30 11:27:22;;;;;;;17.63;11.10;;;;;;;33.39;41.01;99480.47;5022616;28;19917;-72